SHMÚ vydal meteorologické výstrahy na Nízke teploty Zobraziť výstrahy

METAR

Letisková meteorologická správa METAR

Meteorologické informácie z ďalších profesionálnych meteorologických staníc SHMÚ zobrazené v tvare zodpovedajúcom pravidlám kódovania správ METAR sú uvedené v položke „METSYN

Informácie o správe METAR

08.04.2020 - 19:00 UTC

METAR LZIB 081900Z 13006KT CAVOK 09/M01 Q1025=
METAR LZKZ 081900Z VRB02KT CAVOK 12/M04 Q1025=
METAR LZPP 081900Z 07002KT CAVOK 09/M03 Q1025=
METAR LZSL 081900Z /////KT CAVOK 10/M03 Q1025=
METAR LZTT 081900Z 29006KT CAVOK 06/M05 Q1026=
METAR LZZI 081900Z 27006KT CAVOK 09/M02 Q1025=

08.04.2020 - 18:30 UTC

METAR LZIB 081830Z 14003KT CAVOK 12/M02 Q1025=
METAR LZKZ 081830Z 26005KT 240V300 CAVOK 13/M07 Q1025=
METAR LZPP 081830Z 09003KT 030V120 CAVOK 12/M04 Q1025=
METAR LZSL 081830Z /////KT CAVOK 12/M03 Q1025=
METAR LZTT 081830Z 28006KT CAVOK 07/M05 Q1025=
METAR LZZI 081830Z 29005KT CAVOK 10/M02 Q1025=

08.04.2020 - 19:00 UTC

METAR LZMC 081900Z 00000KT CAVOK 10/M04 Q1026=
METAR LZPW 081900Z 08004KT CAVOK 08/M05 Q1025=

skok na menu ↑


skok na začiatok stránky ↑